Time;durP1;ratioP1;P1;durP2;ratioP2;P2;SDS_P1;SDS_P2;PMS_P1;PMS_P2;Temp;Humidity;BMP_temperature;BMP_pressure;BME280_temperature;BME280_humidity;BME280_pressure;Samples;Min_cycle;Max_cycle;Signal;HPM_P1;HPM_P2
2021/12/16 00:01:47;;;;;;;7.07;2.40;;;21.70;54.90;;;;;;5169724;28;20042;-70
2021/12/16 00:10:27;;;;;;;4.28;2.65;;;21.70;55.00;;;;;;5142975;28;20132;-70
2021/12/16 00:32:58;;;;;;;5.90;2.22;;;21.70;55.00;;;;;;5148410;28;20046;-70
2021/12/16 00:35:33;;;;;;;6.35;2.67;;;21.70;55.10;;;;;;5142326;28;20056;-70
2021/12/16 00:38:05;;;;;;;3.72;2.33;;;21.70;55.00;;;;;;5160071;28;20061;-70
2021/12/16 00:40:41;;;;;;;4.65;2.67;;;21.70;55.00;;;;;;5150055;28;20073;-70
2021/12/16 00:43:33;;;;;;;5.05;2.30;;;21.70;55.10;;;;;;5158975;28;20049;-70
2021/12/16 00:54:14;;;;;;;3.55;2.53;;;21.70;54.90;;;;;;5158801;28;20487;-70
2021/12/16 00:56:55;;;;;;;5.45;2.30;;;21.70;55.00;;;;;;5135443;28;20058;-70
2021/12/16 00:59:33;;;;;;;6.35;2.63;;;21.70;54.90;;;;;;5153611;28;20049;-70
2021/12/16 01:02:20;;;;;;;4.80;2.10;;;21.70;55.00;;;;;;5132815;28;20045;-70
2021/12/16 01:07:57;;;;;;;3.97;3.08;;;21.70;55.00;;;;;;5146632;28;20479;-70
2021/12/16 01:34:00;;;;;;;3.22;2.10;;;21.60;55.10;;;;;;5118519;28;20379;-70
2021/12/16 01:37:16;;;;;;;4.38;2.40;;;21.60;55.10;;;;;;5147045;28;20053;-70
2021/12/16 01:45:45;;;;;;;4.35;2.05;;;21.70;55.10;;;;;;5114710;28;20410;-70
2021/12/16 01:50:57;;;;;;;5.15;2.35;;;21.70;55.10;;;;;;5124337;28;20045;-70
2021/12/16 01:59:02;;;;;;;3.15;2.35;;;21.70;55.10;;;;;;5135635;28;20042;-71
2021/12/16 02:01:37;;;;;;;4.07;2.00;;;21.60;55.00;;;;;;5142342;28;20126;-70
2021/12/16 02:04:20;;;;;;;3.78;2.28;;;21.70;55.10;;;;;;5120633;28;20366;-71
2021/12/16 02:07:22;;;;;;;5.03;2.50;;;21.70;55.10;;;;;;5125453;28;20054;-70
2021/12/16 02:10:01;;;;;;;4.15;2.05;;;21.70;55.10;;;;;;5145289;28;20053;-71
2021/12/16 02:37:48;;;;;;;6.13;2.33;;;21.60;55.10;;;;;;5124888;28;20049;-70
2021/12/16 02:40:21;;;;;;;3.17;1.92;;;21.60;55.00;;;;;;5141059;28;20418;-71
2021/12/16 02:42:58;;;;;;;2.80;1.60;;;21.60;55.00;;;;;;5149630;28;20421;-70
2021/12/16 02:51:11;;;;;;;2.90;1.95;;;21.60;55.00;;;;;;5156221;28;20054;-70
2021/12/16 02:53:48;;;;;;;3.17;2.10;;;21.60;55.00;;;;;;5152717;28;20513;-70
2021/12/16 02:56:21;;;;;;;3.35;1.80;;;21.60;55.00;;;;;;5152305;28;20957;-70
2021/12/16 02:58:56;;;;;;;2.20;1.60;;;21.60;55.00;;;;;;5135178;28;20050;-70
2021/12/16 03:01:34;;;;;;;2.22;1.80;;;21.60;54.90;;;;;;5138356;28;20118;-70
2021/12/16 03:04:10;;;;;;;3.08;1.70;;;21.70;55.00;;;;;;5152413;28;20054;-70
2021/12/16 03:06:50;;;;;;;2.97;1.70;;;21.70;55.00;;;;;;5155124;28;20034;-70
2021/12/16 03:09:47;;;;;;;2.30;1.63;;;21.70;54.90;;;;;;5141551;28;20045;-70
2021/12/16 03:12:43;;;;;;;3.80;1.80;;;21.60;54.90;;;;;;5156706;28;20050;-70
2021/12/16 03:18:42;;;;;;;4.00;1.85;;;21.60;55.00;;;;;;5126385;28;20058;-70
2021/12/16 03:21:25;;;;;;;3.28;1.75;;;21.60;55.00;;;;;;5130340;28;20062;-70
2021/12/16 03:38:12;;;;;;;2.65;1.88;;;21.60;55.00;;;;;;5135047;28;20041;-70
2021/12/16 03:40:44;;;;;;;3.42;1.80;;;21.60;55.00;;;;;;5150744;28;20042;-70
2021/12/16 03:43:19;;;;;;;3.38;1.80;;;21.60;55.00;;;;;;5150125;28;20046;-70
2021/12/16 03:49:03;;;;;;;1.70;1.40;;;21.60;55.00;;;;;;5147614;28;20046;-71
2021/12/16 03:51:46;;;;;;;3.00;1.75;;;21.60;55.00;;;;;;5148753;28;20046;-70
2021/12/16 03:54:34;;;;;;;4.18;2.00;;;21.60;55.00;;;;;;5107944;28;20278;-70
2021/12/16 03:57:11;;;;;;;2.53;1.60;;;21.60;55.00;;;;;;5132379;28;20106;-70
2021/12/16 03:59:47;;;;;;;3.08;1.80;;;21.60;55.00;;;;;;5130238;28;20033;-70
2021/12/16 04:02:49;;;;;;;4.10;2.00;;;21.60;55.00;;;;;;5130904;28;20418;-70
2021/12/16 04:05:28;;;;;;;5.72;1.52;;;21.60;55.00;;;;;;5123268;28;20053;-71
2021/12/16 04:08:04;;;;;;;3.85;1.52;;;21.60;55.10;;;;;;5122009;28;20057;-70
2021/12/16 04:11:05;;;;;;;4.30;1.58;;;21.60;55.00;;;;;;5149551;28;20050;-70
2021/12/16 04:16:40;;;;;;;3.55;1.90;;;21.60;54.90;;;;;;5125891;28;20048;-70
2021/12/16 04:19:21;;;;;;;2.00;1.67;;;21.60;54.90;;;;;;5129004;28;20049;-70
2021/12/16 04:22:02;;;;;;;2.85;1.58;;;21.60;55.00;;;;;;5143912;28;20050;-70
2021/12/16 04:24:37;;;;;;;2.97;1.80;;;21.60;55.00;;;;;;5148282;28;20053;-70
2021/12/16 04:27:09;;;;;;;3.25;1.50;;;21.60;55.00;;;;;;5139777;28;20058;-70
2021/12/16 04:29:44;;;;;;;3.33;1.95;;;21.60;55.00;;;;;;5141401;28;20117;-70
2021/12/16 04:32:17;;;;;;;4.97;2.00;;;21.60;55.00;;;;;;5158912;23;20088;-65
2021/12/16 04:34:50;;;;;;;2.72;1.50;;;21.60;55.00;;;;;;5153717;28;20052;-64
2021/12/16 04:37:23;;;;;;;2.53;1.48;;;21.60;55.00;;;;;;5140790;28;20761;-64
2021/12/16 04:39:58;;;;;;;5.25;1.70;;;21.60;55.00;;;;;;5151406;28;20075;-64
2021/12/16 04:42:31;;;;;;;3.25;1.60;;;21.60;55.00;;;;;;5158876;28;20386;-64
2021/12/16 04:45:07;;;;;;;3.40;1.73;;;21.60;55.00;;;;;;5161552;23;20872;-66
2021/12/16 04:47:40;;;;;;;2.75;1.65;;;21.60;55.70;;;;;;5195959;28;20044;-66
2021/12/16 04:50:14;;;;;;;2.10;1.45;;;21.60;55.00;;;;;;5192606;28;20052;-68
2021/12/16 04:52:46;;;;;;;3.77;1.60;;;21.60;55.00;;;;;;5198008;28;21604;-64
2021/12/16 04:55:23;;;;;;;7.90;1.80;;;21.60;55.10;;;;;;5174473;28;20052;-66
2021/12/16 04:57:56;;;;;;;2.90;1.90;;;21.60;55.10;;;;;;5166085;28;20041;-66
2021/12/16 05:00:29;;;;;;;4.30;1.52;;;21.60;55.10;;;;;;5183667;28;20048;-65
2021/12/16 05:03:19;;;;;;;3.75;1.95;;;21.60;55.10;;;;;;5177680;28;20396;-64
2021/12/16 05:05:53;;;;;;;;;;;21.60;55.20;;;;;;5189150;28;20068;-64
2021/12/16 05:08:26;;;;;;;2.28;1.77;;;21.50;55.10;;;;;;5201645;28;20491;-65
2021/12/16 05:11:12;;;;;;;3.08;1.83;;;21.50;55.20;;;;;;5184509;28;20044;-66
2021/12/16 05:13:48;;;;;;;7.07;2.03;;;21.60;55.20;;;;;;5185957;28;20037;-68
2021/12/16 05:16:24;;;;;;;2.42;1.73;;;21.50;55.20;;;;;;5203399;28;20110;-67
2021/12/16 05:18:56;;;;;;;2.90;1.60;;;21.50;55.20;;;;;;5204742;28;20032;-67
2021/12/16 05:21:52;;;;;;;2.40;1.50;;;21.50;55.30;;;;;;5182925;28;20041;-69
2021/12/16 05:24:36;;;;;;;2.35;1.55;;;21.60;55.30;;;;;;5202508;28;20040;-68
2021/12/16 05:27:16;;;;;;;6.95;1.42;;;21.50;55.30;;;;;;5205966;28;20385;-65
2021/12/16 05:29:49;;;;;;;2.97;1.85;;;21.50;55.30;;;;;;5184658;28;20055;-66
2021/12/16 05:32:23;;;;;;;3.83;2.00;;;21.60;55.40;;;;;;5172951;28;20056;-68
2021/12/16 05:34:55;;;;;;;4.35;1.80;;;21.50;55.30;;;;;;5184597;28;20298;-66
2021/12/16 05:37:28;;;;;;;2.42;1.35;;;21.60;55.30;;;;;;5182362;28;20045;-66
2021/12/16 05:40:00;;;;;;;5.97;1.60;;;21.60;55.30;;;;;;5177208;28;20049;-66
2021/12/16 05:42:57;;;;;;;6.70;1.80;;;21.60;55.40;;;;;;5176943;28;20052;-66
2021/12/16 05:45:30;;;;;;;3.58;1.80;;;21.50;55.50;;;;;;5197950;28;20472;-66
2021/12/16 05:48:05;;;;;;;1.67;1.27;;;21.60;55.50;;;;;;5190558;28;20045;-67
2021/12/16 05:50:41;;;;;;;4.80;1.45;;;21.60;55.50;;;;;;5177060;28;21061;-67
2021/12/16 05:53:13;;;;;;;4.22;1.67;;;21.60;55.50;;;;;;5181547;28;20048;-65
2021/12/16 05:55:46;;;;;;;2.67;1.58;;;21.60;55.60;;;;;;5187312;28;20052;-64
2021/12/16 05:58:25;;;;;;;3.25;1.73;;;21.60;55.60;;;;;;5182006;28;20040;-66
2021/12/16 06:01:04;;;;;;;3.42;1.25;;;21.60;55.70;;;;;;5170852;28;20052;-65
2021/12/16 06:03:39;;;;;;;5.03;1.30;;;21.60;55.80;;;;;;5176721;28;20340;-66
2021/12/16 06:06:12;;;;;;;6.80;2.17;;;21.60;55.90;;;;;;5174817;28;20052;-66
2021/12/16 06:08:46;;;;;;;5.22;1.85;;;21.60;55.90;;;;;;5188219;28;20040;-63
2021/12/16 06:11:22;;;;;;;9.18;2.50;;;21.60;55.90;;;;;;5202288;28;20711;-64
2021/12/16 06:27:50;;;;;;;9.70;2.22;;;21.60;56.50;;;;;;5180914;28;20492;-64
2021/12/16 06:30:27;;;;;;;8.10;2.50;;;21.60;55.80;;;;;;5188557;28;20044;-66
2021/12/16 06:33:00;;;;;;;5.82;2.58;;;21.70;55.80;;;;;;5175524;28;20052;-65
2021/12/16 06:35:34;;;;;;;9.80;2.40;;;21.60;55.60;;;;;;5195083;28;21057;-65
2021/12/16 06:38:06;;;;;;;12.98;2.65;;;21.70;55.70;;;;;;5177855;28;20048;-65
2021/12/16 06:40:50;;;;;;;;;;;21.70;55.50;;;;;;5207306;28;20060;-67
2021/12/16 06:43:52;;;;;;;10.80;2.42;;;21.60;55.40;;;;;;5220901;28;19968;-66
2021/12/16 06:46:32;;;;;;;9.85;2.88;;;21.60;55.40;;;;;;5211548;28;20053;-67
2021/12/16 06:49:05;;;;;;;9.68;3.00;;;21.60;55.30;;;;;;5209917;28;20040;-65
2021/12/16 06:51:51;;;;;;;4.78;2.50;;;21.70;55.30;;;;;;5216253;28;20060;-65
2021/12/16 06:54:36;;;;;;;8.27;2.70;;;21.70;55.10;;;;;;5216388;28;20056;-67
2021/12/16 06:57:22;;;;;;;9.80;2.63;;;21.70;54.90;;;;;;5215969;28;20142;-66
2021/12/16 07:00:08;;;;;;;9.00;2.40;;;21.70;54.80;;;;;;5222407;28;20047;-66
2021/12/16 07:02:54;;;;;;;7.43;2.28;;;21.70;54.70;;;;;;5223852;28;20049;-67
2021/12/16 07:05:38;;;;;;;8.30;2.78;;;21.70;54.50;;;;;;5226885;28;20052;-68
2021/12/16 07:08:15;;;;;;;8.25;2.85;;;21.70;54.40;;;;;;5215080;28;20753;-67
2021/12/16 07:10:54;;;;;;;10.20;2.92;;;21.70;54.40;;;;;;5228404;28;20543;-66
2021/12/16 07:13:35;;;;;;;7.43;2.25;;;21.70;54.30;;;;;;5222155;28;20048;-65
2021/12/16 07:16:11;;;;;;;7.30;2.42;;;21.70;54.20;;;;;;5219104;28;20052;-68
2021/12/16 07:18:44;;;;;;;5.47;2.45;;;21.70;54.20;;;;;;5221535;28;20416;-66
2021/12/16 07:21:17;;;;;;;5.65;2.40;;;21.70;54.10;;;;;;5219633;28;20464;-68
2021/12/16 07:23:50;;;;;;;6.70;2.60;;;21.70;54.10;;;;;;5223263;28;20060;-65
2021/12/16 07:26:22;;;;;;;3.97;2.60;;;21.70;54.10;;;;;;5220957;28;20063;-66
2021/12/16 07:28:55;;;;;;;6.18;2.30;;;21.70;54.10;;;;;;5220276;28;20503;-66
2021/12/16 07:31:28;;;;;;;6.65;2.70;;;21.70;54.10;;;;;;5218336;28;20033;-66
2021/12/16 07:34:02;;;;;;;5.80;2.30;;;21.70;54.00;;;;;;5217520;28;20048;-63
2021/12/16 07:36:35;;;;;;;;;;;21.70;54.00;;;;;;5223068;28;20044;-68
2021/12/16 07:39:11;;;;;;;7.07;2.70;;;21.70;54.00;;;;;;5203874;28;19948;-67
2021/12/16 07:41:46;;;;;;;5.45;2.17;;;21.70;54.00;;;;;;5224525;28;20041;-66
2021/12/16 07:44:19;;;;;;;6.63;2.17;;;21.70;54.10;;;;;;5226693;28;20533;-66
2021/12/16 07:46:59;;;;;;;5.00;2.22;;;21.70;54.00;;;;;;5219817;28;20064;-67
2021/12/16 07:49:39;;;;;;;4.43;2.22;;;21.70;53.90;;;;;;5221911;28;20056;-67
2021/12/16 07:52:16;;;;;;;4.00;1.70;;;21.70;53.90;;;;;;5220982;28;20500;-66
2021/12/16 07:54:48;;;;;;;3.67;1.75;;;21.70;53.90;;;;;;5224205;28;20408;-67
2021/12/16 07:57:21;;;;;;;6.25;2.60;;;21.70;54.50;;;;;;5220776;28;20048;-66
2021/12/16 07:59:53;;;;;;;4.30;1.90;;;21.70;53.80;;;;;;5222911;28;20439;-66
2021/12/16 08:02:26;;;;;;;4.37;2.00;;;21.70;53.80;;;;;;5218789;28;20620;-66
2021/12/16 08:04:58;;;;;;;4.70;1.98;;;21.70;53.80;;;;;;5200000;28;20453;-65
2021/12/16 08:07:31;;;;;;;5.05;1.85;;;21.70;53.80;;;;;;5196437;28;25731;-67
2021/12/16 08:10:06;;;;;;;4.05;2.00;;;21.70;53.80;;;;;;5194979;28;20060;-67
2021/12/16 08:12:39;;;;;;;5.18;2.33;;;21.70;53.80;;;;;;5192765;28;20427;-66
2021/12/16 08:15:14;;;;;;;4.13;1.70;;;21.70;53.80;;;;;;5205901;28;20518;-66
2021/12/16 08:17:47;;;;;;;7.47;2.50;;;21.70;53.80;;;;;;5215833;28;20729;-64
2021/12/16 08:20:19;;;;;;;5.32;2.30;;;21.70;53.80;;;;;;5214620;28;20045;-67
2021/12/16 08:22:56;;;;;;;4.55;1.92;;;21.70;53.90;;;;;;5216419;28;20056;-67
2021/12/16 08:25:30;;;;;;;4.50;2.15;;;21.70;53.90;;;;;;5219540;28;20430;-66
2021/12/16 08:28:03;;;;;;;8.30;2.45;;;21.70;53.80;;;;;;5215117;28;20040;-67
2021/12/16 08:30:38;;;;;;;;;;;21.70;53.80;;;;;;5216653;28;20048;-66
2021/12/16 08:33:12;;;;;;;4.10;1.70;;;21.60;53.80;;;;;;5219715;28;19924;-66
2021/12/16 08:35:49;;;;;;;3.58;1.88;;;21.60;53.90;;;;;;5220572;28;21225;-66
2021/12/16 08:38:23;;;;;;;4.70;2.08;;;21.60;53.90;;;;;;5221234;28;20066;-67
2021/12/16 08:41:00;;;;;;;4.38;2.03;;;21.60;53.80;;;;;;5218623;28;20045;-67
2021/12/16 08:43:32;;;;;;;4.18;1.83;;;21.60;53.80;;;;;;5219653;28;20430;-66
2021/12/16 08:46:05;;;;;;;4.15;1.88;;;21.70;53.90;;;;;;5223378;28;20045;-66
2021/12/16 08:48:37;;;;;;;4.30;1.95;;;21.60;53.80;;;;;;5222382;28;20059;-65
2021/12/16 08:51:11;;;;;;;5.85;2.22;;;21.60;53.80;;;;;;5217996;28;20048;-68
2021/12/16 08:53:43;;;;;;;2.67;1.50;;;21.60;53.80;;;;;;5223289;28;20040;-65
2021/12/16 08:56:17;;;;;;;3.42;1.90;;;21.60;53.80;;;;;;5225392;28;20411;-66
2021/12/16 08:58:49;;;;;;;;;;;21.60;53.80;;;;;;5211595;28;20992;-66
2021/12/16 09:01:28;;;;;;;9.20;2.30;;;21.60;53.80;;;;;;5202961;28;19936;-66
2021/12/16 09:04:00;;;;;;;4.15;2.00;;;21.60;54.60;;;;;;5209132;28;20044;-66
2021/12/16 09:06:34;;;;;;;4.28;2.08;;;21.60;54.00;;;;;;5189051;28;20041;-68
2021/12/16 09:09:08;;;;;;;6.40;2.17;;;21.60;54.10;;;;;;5213852;28;20047;-63
2021/12/16 09:11:55;;;;;;;3.63;2.05;;;21.60;54.20;;;;;;5224249;28;20056;-68
2021/12/16 09:14:28;;;;;;;3.95;2.10;;;21.60;54.20;;;;;;5222562;28;20591;-66
2021/12/16 09:17:02;;;;;;;6.05;2.20;;;21.60;54.20;;;;;;5229156;22;20048;-64
2021/12/16 09:19:34;;;;;;;4.95;1.98;;;21.60;54.20;;;;;;5193932;28;20045;-64
2021/12/16 09:22:06;;;;;;;6.07;2.40;;;21.60;54.10;;;;;;5197394;28;20052;-64
2021/12/16 09:24:39;;;;;;;4.38;1.80;;;21.60;54.10;;;;;;5191834;28;20045;-64
2021/12/16 09:27:12;;;;;;;7.70;2.10;;;21.60;54.10;;;;;;5198560;28;20428;-64
2021/12/16 09:29:45;;;;;;;6.30;2.83;;;21.60;54.00;;;;;;5193804;28;20497;-64
2021/12/16 09:32:18;;;;;;;;;;;21.60;54.00;;;;;;5197096;28;20045;-64
2021/12/16 09:34:50;;;;;;;5.20;1.80;;;21.60;54.00;;;;;;5193369;28;19941;-64
2021/12/16 09:37:23;;;;;;;4.97;2.08;;;21.50;54.10;;;;;;5195295;28;20064;-64
2021/12/16 09:39:56;;;;;;;5.40;2.28;;;21.60;54.10;;;;;;5195997;28;20045;-66
2021/12/16 09:42:29;;;;;;;5.63;1.77;;;21.60;54.10;;;;;;5191513;28;20049;-65
2021/12/16 09:45:08;;;;;;;6.47;2.00;;;21.60;54.10;;;;;;5195672;28;20060;-64
2021/12/16 09:47:44;;;;;;;6.07;1.60;;;21.60;54.10;;;;;;5195587;28;20644;-65
2021/12/16 09:50:22;;;;;;;3.58;1.67;;;21.60;54.40;;;;;;5221368;22;20080;-59
2021/12/16 09:52:56;;;;;;;6.25;1.70;;;21.60;54.00;;;;;;5218705;28;20053;-59
2021/12/16 09:55:28;;;;;;;5.13;1.80;;;21.60;54.10;;;;;;5232912;28;20495;-58
2021/12/16 09:58:03;;;;;;;5.90;1.90;;;21.60;54.10;;;;;;5229463;28;20048;-59
2021/12/16 10:00:36;;;;;;;5.68;2.30;;;21.60;54.00;;;;;;5230744;28;20063;-57
2021/12/16 10:03:09;;;;;;;5.43;1.85;;;21.60;54.10;;;;;;5222589;28;20052;-55
2021/12/16 10:05:42;;;;;;;7.55;1.55;;;21.60;54.10;;;;;;5227831;28;20408;-59
2021/12/16 10:08:15;;;;;;;4.53;2.22;;;21.50;54.10;;;;;;5215754;28;20049;-58
2021/12/16 10:10:48;;;;;;;2.83;1.67;;;21.60;54.20;;;;;;5223758;28;20598;-57
2021/12/16 10:13:31;;;;;;;4.88;1.67;;;21.50;54.10;;;;;;5218826;28;20036;-58
2021/12/16 10:18:40;;;;;;;3.88;1.63;;;21.50;54.10;;;;;;5221145;28;20049;-57
2021/12/16 10:21:13;;;;;;;4.63;1.70;;;21.50;54.10;;;;;;5226524;28;20405;-56
2021/12/16 10:23:46;;;;;;;3.83;2.33;;;21.60;54.20;;;;;;5217487;28;20049;-57
2021/12/16 10:26:22;;;;;;;4.57;2.53;;;21.60;54.10;;;;;;5226251;28;20048;-60
2021/12/16 10:28:59;;;;;;;5.57;2.53;;;21.60;54.10;;;;;;5229322;28;20048;-61
2021/12/16 10:31:35;;;;;;;6.80;2.50;;;21.60;54.20;;;;;;5206225;28;20052;-60
2021/12/16 10:34:10;;;;;;;4.50;2.60;;;21.60;54.10;;;;;;5230008;28;20424;-60
2021/12/16 10:36:47;;;;;;;4.78;3.08;;;21.60;54.10;;;;;;5205670;28;21545;-58
2021/12/16 10:39:22;;;;;;;7.53;3.20;;;21.60;54.10;;;;;;5205471;28;20052;-61
2021/12/16 10:41:58;;;;;;;3.53;3.13;;;21.60;54.00;;;;;;5228659;28;20067;-59
2021/12/16 10:44:35;;;;;;;3.92;3.50;;;21.60;54.00;;;;;;5230624;28;20063;-61
2021/12/16 10:47:13;;;;;;;4.07;3.30;;;21.60;54.00;;;;;;5232967;28;20498;-59
2021/12/16 10:49:52;;;;;;;6.55;4.30;;;21.60;54.00;;;;;;5226897;28;20396;-58
2021/12/16 10:52:27;;;;;;;6.30;4.25;;;21.60;54.00;;;;;;5209673;28;20048;-59
2021/12/16 10:55:00;;;;;;;5.35;4.13;;;21.60;54.00;;;;;;5233666;28;20060;-59
2021/12/16 10:57:32;;;;;;;4.80;4.30;;;21.60;54.00;;;;;;5236311;28;20433;-61
2021/12/16 11:00:12;;;;;;;5.10;4.60;;;21.60;54.10;;;;;;5233088;28;23159;-59
2021/12/16 11:02:45;;;;;;;4.70;4.30;;;21.60;54.20;;;;;;5230245;28;20053;-60
2021/12/16 11:05:22;;;;;;;6.73;4.67;;;21.60;54.20;;;;;;5229053;28;20037;-57
2021/12/16 11:07:59;;;;;;;5.82;4.70;;;21.60;54.20;;;;;;5225259;28;20539;-58
2021/12/16 11:10:35;;;;;;;4.22;3.90;;;21.60;54.20;;;;;;5211734;28;20658;-60
2021/12/16 11:13:11;;;;;;;4.88;4.40;;;21.60;54.00;;;;;;5226843;28;20055;-57
2021/12/16 11:15:52;;;;;;;4.78;4.35;;;21.70;53.90;;;;;;5233562;28;20044;-57
2021/12/16 11:18:26;;;;;;;5.40;4.20;;;21.70;53.70;;;;;;5214788;28;20052;-59
2021/12/16 11:21:12;;;;;;;5.78;3.97;;;21.60;53.60;;;;;;5224129;28;20412;-59
2021/12/16 11:23:44;;;;;;;4.20;3.80;;;21.70;53.60;;;;;;5214662;28;20409;-58
2021/12/16 11:26:26;;;;;;;7.30;4.20;;;21.70;53.60;;;;;;5215251;28;20420;-58
2021/12/16 11:28:58;;;;;;;3.88;3.58;;;21.70;53.40;;;;;;5221483;28;20041;-57
2021/12/16 11:31:33;;;;;;;4.72;3.55;;;21.70;53.30;;;;;;5223306;28;20044;-59
2021/12/16 11:34:10;;;;;;;3.97;3.67;;;21.70;53.30;;;;;;5216697;28;20063;-61
2021/12/16 11:36:52;;;;;;;4.07;3.67;;;21.70;53.20;;;;;;5223444;28;20503;-58
2021/12/16 11:39:29;;;;;;;3.88;3.58;;;21.70;53.20;;;;;;5223500;28;20036;-56
2021/12/16 11:42:03;;;;;;;4.15;3.75;;;21.80;53.20;;;;;;5216290;28;20048;-61
2021/12/16 11:44:41;;;;;;;3.80;3.50;;;21.70;53.10;;;;;;5219733;28;20052;-60
2021/12/16 11:47:19;;;;;;;3.30;3.00;;;21.70;53.00;;;;;;5219360;28;20049;-57
2021/12/16 11:50:01;;;;;;;4.25;3.20;;;21.70;53.00;;;;;;5227141;28;20040;-59
2021/12/16 11:52:37;;;;;;;3.50;3.20;;;21.70;53.00;;;;;;5215272;28;20232;-59
2021/12/16 11:55:16;;;;;;;3.53;3.20;;;21.70;53.00;;;;;;5230408;28;20064;-57
2021/12/16 11:57:52;;;;;;;4.22;3.15;;;21.70;53.00;;;;;;5226638;28;20083;-58
2021/12/16 12:00:29;;;;;;;4.05;3.42;;;21.70;53.00;;;;;;5222577;28;20504;-60
2021/12/16 12:03:09;;;;;;;3.50;3.20;;;21.70;53.00;;;;;;5189876;28;20045;-59
2021/12/16 12:05:45;;;;;;;3.65;3.35;;;21.70;53.00;;;;;;5225557;28;20064;-60
2021/12/16 12:08:24;;;;;;;3.60;3.30;;;21.70;53.00;;;;;;5204917;28;20055;-56
2021/12/16 12:11:00;;;;;;;4.25;3.70;;;21.70;53.00;;;;;;5204540;28;20477;-58
2021/12/16 12:13:38;;;;;;;4.05;3.65;;;21.70;53.00;;;;;;5220190;28;20042;-60
2021/12/16 12:16:12;;;;;;;3.47;3.20;;;21.70;53.00;;;;;;5216324;28;20057;-60
2021/12/16 12:18:54;;;;;;;3.90;3.05;;;21.70;53.00;;;;;;5222051;28;20428;-57
2021/12/16 12:21:34;;;;;;;3.38;3.08;;;21.70;53.00;;;;;;5209307;28;20048;-58
2021/12/16 12:24:09;;;;;;;3.08;2.88;;;21.70;53.00;;;;;;5217086;28;20535;-60
2021/12/16 12:26:53;;;;;;;3.67;3.38;;;21.70;53.00;;;;;;5203272;28;20417;-57
2021/12/16 12:29:28;;;;;;;3.17;2.90;;;21.70;53.00;;;;;;5200095;28;20028;-58
2021/12/16 12:32:14;;;;;;;3.30;3.10;;;21.70;53.10;;;;;;5216255;28;20045;-60
2021/12/16 12:34:59;;;;;;;3.30;3.03;;;21.70;53.00;;;;;;5222924;28;20068;-59
2021/12/16 12:37:34;;;;;;;3.45;3.15;;;21.70;53.00;;;;;;5222206;28;20059;-59
2021/12/16 12:40:17;;;;;;;4.10;3.15;;;21.70;53.00;;;;;;5226052;28;20049;-57
2021/12/16 12:42:53;;;;;;;3.90;3.08;;;21.70;52.90;;;;;;5218481;28;20045;-59
2021/12/16 12:45:34;;;;;;;2.83;2.63;;;21.70;52.90;;;;;;5220407;28;20056;-59
2021/12/16 12:48:12;;;;;;;4.07;2.97;;;21.70;52.90;;;;;;5223643;28;20040;-57
2021/12/16 12:50:48;;;;;;;3.63;2.83;;;21.80;53.00;;;;;;5203619;28;20203;-60
2021/12/16 12:53:25;;;;;;;4.25;2.83;;;21.70;53.50;;;;;;5227074;28;20044;-58
2021/12/16 12:56:12;;;;;;;3.28;2.70;;;21.70;52.80;;;;;;5226099;28;20057;-59
2021/12/16 12:59:11;;;;;;;2.70;2.50;;;21.80;52.80;;;;;;5226331;28;20542;-57
2021/12/16 13:01:55;;;;;;;4.50;2.70;;;21.70;52.80;;;;;;5230413;28;20416;-57
2021/12/16 13:04:45;;;;;;;3.10;2.78;;;21.70;52.80;;;;;;5223636;28;21177;-57
2021/12/16 13:07:18;;;;;;;2.90;2.55;;;21.70;52.80;;;;;;5224795;28;20044;-60
2021/12/16 13:09:54;;;;;;;4.13;3.03;;;21.70;52.90;;;;;;5201362;28;20408;-58
2021/12/16 13:12:35;;;;;;;2.83;2.55;;;21.70;52.80;;;;;;5220715;28;20416;-60
2021/12/16 13:15:44;;;;;;;3.13;2.70;;;21.70;52.80;;;;;;5224585;28;20048;-57
2021/12/16 13:27:26;;;;;;;2.85;2.65;;;21.70;52.90;;;;;;5226801;28;20033;-60
2021/12/16 13:33:34;;;;;;;2.35;2.25;;;21.70;52.90;;;;;;5195683;28;20044;-57
2021/12/16 13:36:15;;;;;;;2.53;2.22;;;21.70;52.90;;;;;;5197461;28;20295;-59
2021/12/16 13:38:49;;;;;;;2.35;2.25;;;21.70;53.00;;;;;;5224058;28;20058;-59
2021/12/16 13:41:26;;;;;;;3.20;2.35;;;21.70;53.00;;;;;;5221954;28;20327;-60
2021/12/16 13:44:05;;;;;;;4.68;2.42;;;21.80;53.00;;;;;;5217250;28;20500;-59
2021/12/16 13:47:05;;;;;;;3.08;2.58;;;21.70;53.00;;;;;;5214918;28;20044;-58
2021/12/16 14:05:33;;;;;;;2.63;2.35;;;21.70;53.00;;;;;;5198286;28;20052;-57
2021/12/16 14:08:13;;;;;;;2.47;2.17;;;21.70;53.10;;;;;;5191435;28;20060;-57
2021/12/16 14:10:56;;;;;;;3.67;2.20;;;21.70;53.10;;;;;;5209608;28;20036;-58
2021/12/16 14:16:56;;;;;;;2.35;2.15;;;21.70;53.10;;;;;;5208170;28;20049;-56
2021/12/16 14:48:06;;;;;;;2.67;2.40;;;21.80;53.40;;;;;;5192980;28;20044;-57
2021/12/16 14:50:43;;;;;;;3.78;2.03;;;21.80;53.30;;;;;;5201914;28;20059;-57
2021/12/16 14:53:39;;;;;;;2.33;2.10;;;21.80;53.40;;;;;;5201346;28;20048;-58
2021/12/16 14:56:17;;;;;;;3.08;2.17;;;21.80;53.40;;;;;;5207822;28;20056;-59
2021/12/16 14:59:12;;;;;;;4.03;1.90;;;21.80;53.50;;;;;;5205261;28;20069;-58
2021/12/16 15:01:49;;;;;;;7.20;2.42;;;21.80;53.50;;;;;;5200077;28;20712;-56
2021/12/16 15:04:24;;;;;;;2.78;2.03;;;21.80;53.50;;;;;;5189248;28;20059;-58
2021/12/16 15:07:05;;;;;;;5.13;2.10;;;21.80;53.60;;;;;;5173662;28;20045;-57
2021/12/16 15:09:39;;;;;;;4.40;2.15;;;21.80;53.50;;;;;;5209874;28;20049;-56
2021/12/16 15:12:24;;;;;;;5.25;2.17;;;21.80;53.50;;;;;;5197331;28;20036;-57
2021/12/16 15:33:36;;;;;;;4.57;1.88;;;21.80;53.30;;;;;;5223423;28;20048;-57
2021/12/16 15:38:41;;;;;;;2.63;2.13;;;21.80;53.20;;;;;;5224401;28;20080;-58
2021/12/16 15:43:13;;;;;;;5.32;2.63;;;21.80;53.10;;;;;;5216738;28;20053;-59
2021/12/16 15:45:51;;;;;;;4.22;1.90;;;21.80;53.00;;;;;;5222929;28;20048;-60
2021/12/16 15:48:27;;;;;;;5.10;1.42;;;21.80;53.00;;;;;;5217781;28;20048;-58
2021/12/16 15:51:03;;;;;;;5.15;2.13;;;21.80;53.00;;;;;;5233412;22;20061;-66
2021/12/16 15:53:42;;;;;;;4.18;2.20;;;21.80;53.00;;;;;;5200420;28;20037;-65
2021/12/16 15:56:17;;;;;;;3.38;2.03;;;21.80;53.00;;;;;;5195878;28;20491;-64
2021/12/16 15:58:55;;;;;;;5.50;2.30;;;21.80;53.00;;;;;;5193899;28;20057;-65
2021/12/16 16:01:29;;;;;;;4.90;1.95;;;21.80;53.00;;;;;;5169305;28;20045;-66
2021/12/16 16:04:08;;;;;;;4.18;1.90;;;21.80;53.00;;;;;;5173571;28;20060;-67
2021/12/16 16:06:43;;;;;;;2.55;2.05;;;21.80;53.10;;;;;;5161288;28;20025;-65
2021/12/16 16:09:16;;;;;;;3.42;1.90;;;21.80;53.10;;;;;;5179781;28;20547;-67
2021/12/16 16:11:56;;;;;;;4.32;1.80;;;21.80;53.00;;;;;;5191187;28;20054;-65
2021/12/16 16:14:32;;;;;;;4.68;1.90;;;21.80;53.00;;;;;;5182637;28;21715;-65
2021/12/16 16:17:13;;;;;;;6.20;2.03;;;21.80;53.70;;;;;;5175259;28;20053;-66
2021/12/16 16:19:47;;;;;;;4.90;2.40;;;21.80;53.00;;;;;;5191569;28;20048;-66
2021/12/16 16:22:20;;;;;;;2.22;1.70;;;21.80;52.90;;;;;;5189758;28;21244;-66
2021/12/16 16:24:54;;;;;;;2.43;1.70;;;21.80;52.80;;;;;;5180214;28;20049;-66
2021/12/16 16:27:29;;;;;;;;;;;21.80;52.80;;;;;;5182470;28;20809;-65
2021/12/16 16:30:06;;;;;;;4.80;2.13;;;21.70;52.70;;;;;;5183198;28;19925;-66
2021/12/16 16:33:05;;;;;;;4.95;2.08;;;21.80;52.80;;;;;;5186741;28;20049;-66
2021/12/16 16:35:47;;;;;;;4.22;1.88;;;21.80;52.70;;;;;;5172317;28;20041;-67
2021/12/16 16:38:24;;;;;;;3.40;1.95;;;21.80;52.70;;;;;;5191268;28;20416;-64
2021/12/16 16:40:58;;;;;;;2.78;1.60;;;21.80;52.70;;;;;;5193022;28;20048;-68
2021/12/16 16:43:35;;;;;;;2.85;2.03;;;21.80;52.70;;;;;;5184170;28;20064;-67
2021/12/16 16:46:35;;;;;;;5.35;1.83;;;21.80;52.70;;;;;;5168674;28;20056;-69
2021/12/16 16:49:11;;;;;;;5.05;1.65;;;21.80;52.70;;;;;;5160640;28;20088;-66
2021/12/16 16:51:47;;;;;;;3.92;2.00;;;21.80;52.70;;;;;;5158524;28;20045;-66
2021/12/16 16:54:31;;;;;;;3.67;1.80;;;21.80;52.70;;;;;;5160039;28;20053;-67
2021/12/16 16:57:11;;;;;;;;;;;21.80;52.70;;;;;;5143602;28;20060;-65
2021/12/16 16:59:59;;;;;;;4.35;1.77;;;21.70;52.60;;;;;;5134950;28;19925;-68
2021/12/16 17:02:43;;;;;;;5.38;1.92;;;21.80;52.80;;;;;;5109254;28;20056;-64
2021/12/16 17:05:25;;;;;;;3.15;2.03;;;21.80;52.70;;;;;;5133141;28;20600;-64
2021/12/16 17:08:04;;;;;;;3.65;1.90;;;21.80;52.80;;;;;;5147601;28;20059;-65
2021/12/16 17:10:45;;;;;;;6.32;2.00;;;21.80;53.00;;;;;;5162980;28;20480;-67
2021/12/16 17:13:36;;;;;;;4.50;1.95;;;21.90;53.00;;;;;;5175315;28;21376;-66
2021/12/16 17:18:57;;;;;;;3.97;2.30;;;21.80;53.00;;;;;;5171133;28;20072;-65
2021/12/16 17:21:40;;;;;;;6.15;2.20;;;21.90;53.00;;;;;;5173114;28;20938;-65
2021/12/16 17:24:22;;;;;;;6.07;2.10;;;21.90;53.00;;;;;;5166363;28;20375;-66
2021/12/16 17:26:59;;;;;;;7.43;1.95;;;21.90;53.00;;;;;;5171424;28;20408;-65
2021/12/16 17:29:40;;;;;;;4.18;2.10;;;21.90;53.00;;;;;;5165017;28;20494;-69
2021/12/16 17:32:23;;;;;;;3.40;2.10;;;21.90;53.00;;;;;;5171408;28;20690;-68
2021/12/16 17:35:11;;;;;;;2.42;1.70;;;21.90;53.00;;;;;;5177035;28;20058;-68